createdAt,value
2019-03-17T00:02:11.636Z,90.82
2019-03-17T00:04:45.180Z,90.75
2019-03-17T00:07:18.601Z,90.11
2019-03-17T00:09:51.801Z,92.21
2019-03-17T00:12:24.862Z,91.49
2019-03-17T00:15:05.325Z,91.64
2019-03-17T00:17:33.827Z,92.38
2019-03-17T00:20:06.683Z,91.58
2019-03-17T00:22:40.071Z,90.97
2019-03-17T00:25:13.084Z,90.73
2019-03-17T00:27:46.791Z,91.04
2019-03-17T00:30:20.662Z,90.86
2019-03-17T00:32:53.568Z,90.81
2019-03-17T00:35:27.338Z,92.56
2019-03-17T00:38:01.189Z,93.23
2019-03-17T00:40:34.169Z,91.55
2019-03-17T00:43:07.560Z,92.42
2019-03-17T00:45:41.113Z,91.79
2019-03-17T00:48:14.490Z,91.54
2019-03-17T00:50:48.989Z,91.85
2019-03-17T00:53:22.587Z,91.22
2019-03-17T00:55:55.854Z,92.77
2019-03-17T00:58:30.559Z,92.35
2019-03-17T01:01:04.156Z,92.32
2019-03-17T01:03:37.125Z,93.04
2019-03-17T01:06:10.322Z,92.82
2019-03-17T01:08:43.666Z,92.46
2019-03-17T01:11:15.956Z,92.22
2019-03-17T01:13:49.700Z,92.88
2019-03-17T01:16:22.638Z,93.39
2019-03-17T01:18:55.643Z,92.85
2019-03-17T01:21:28.784Z,92.75
2019-03-17T01:24:01.028Z,92.01
2019-03-17T01:26:33.850Z,91.55
2019-03-17T01:29:06.949Z,93.22
2019-03-17T01:31:40.043Z,91.61
2019-03-17T01:34:13.475Z,92.28
2019-03-17T01:36:46.959Z,90.96
2019-03-17T01:39:20.480Z,91.97
2019-03-17T01:41:54.372Z,90.31
2019-03-17T01:44:27.475Z,90.19
2019-03-17T01:46:59.711Z,91.67
2019-03-17T01:49:33.347Z,91.17
2019-03-17T01:52:06.755Z,92.92
2019-03-17T01:54:41.596Z,91.40
2019-03-17T01:57:14.137Z,91.81
2019-03-17T01:59:47.532Z,92.22
2019-03-17T02:02:20.658Z,93.91
2019-03-17T02:04:54.131Z,94.86
2019-03-17T02:07:27.443Z,93.38
2019-03-17T02:10:00.984Z,94.23
2019-03-17T02:12:34.413Z,94.26
2019-03-17T02:15:08.222Z,94.26
2019-03-17T02:17:42.076Z,93.57
2019-03-17T02:20:15.717Z,91.40
2019-03-17T02:22:49.144Z,93.26
2019-03-17T02:25:23.128Z,92.35
2019-03-17T02:27:55.787Z,92.18
2019-03-17T02:30:28.793Z,92.67
2019-03-17T02:33:02.547Z,94.97
2019-03-17T02:35:39.460Z,94.94
2019-03-17T02:38:12.178Z,93.50
2019-03-17T02:40:45.529Z,92.20
2019-03-17T02:43:19.008Z,92.74
2019-03-17T02:45:52.358Z,92.71
2019-03-17T02:48:25.642Z,93.03
2019-03-17T02:50:59.001Z,92.89
2019-03-17T02:53:31.948Z,92.78
2019-03-17T02:56:05.320Z,92.90
2019-03-17T02:58:38.430Z,92.16
2019-03-17T03:01:11.923Z,93.34
2019-03-17T03:03:45.336Z,92.66
2019-03-17T03:06:18.077Z,93.32
2019-03-17T03:08:51.931Z,93.39
2019-03-17T03:11:25.412Z,93.87
2019-03-17T03:13:58.785Z,93.32
2019-03-17T03:16:31.919Z,92.99
2019-03-17T03:19:04.999Z,92.70
2019-03-17T03:21:38.460Z,93.91
2019-03-17T03:24:12.296Z,92.33
2019-03-17T03:26:46.118Z,92.75
2019-03-17T03:29:19.625Z,93.12
2019-03-17T03:31:53.463Z,93.28
2019-03-17T03:34:26.501Z,91.84
2019-03-17T03:37:00.107Z,92.09
2019-03-17T03:39:33.192Z,92.87
2019-03-17T03:42:07.682Z,91.63
2019-03-17T03:44:41.820Z,90.93
2019-03-17T03:47:14.836Z,92.83
2019-03-17T03:49:48.622Z,92.85
2019-03-17T03:52:22.154Z,92.67
2019-03-17T03:54:55.599Z,91.91
2019-03-17T03:57:28.934Z,93.11
2019-03-17T04:00:02.055Z,91.88
2019-03-17T04:02:35.568Z,91.50
2019-03-17T04:05:08.821Z,93.41
2019-03-17T04:07:42.613Z,93.45
2019-03-17T04:10:16.231Z,93.38
2019-03-17T04:12:49.250Z,92.63
2019-03-17T04:15:22.276Z,91.81
2019-03-17T04:17:54.866Z,92.17
2019-03-17T04:20:28.228Z,91.23
2019-03-17T04:23:01.277Z,90.77
2019-03-17T04:25:35.266Z,92.07
2019-03-17T04:28:08.837Z,89.77
2019-03-17T04:30:42.289Z,90.16
2019-03-17T04:33:15.576Z,89.38
2019-03-17T04:35:48.992Z,91.76
2019-03-17T04:38:21.932Z,91.14
2019-03-17T04:40:55.536Z,92.43
2019-03-17T04:43:29.961Z,94.73
2019-03-17T04:46:03.641Z,97.28
2019-03-17T04:48:36.731Z,98.85
2019-03-17T04:51:10.262Z,97.51
2019-03-17T04:53:43.359Z,99.92
2019-03-17T17:55:23.212Z,97.57
2019-03-17T17:57:55.998Z,96.21
2019-03-17T18:00:30.138Z,97.83
2019-03-17T18:03:03.224Z,99.58
2019-03-17T18:05:36.487Z,100.00
2019-03-17T18:08:09.907Z,100.00
2019-03-17T18:10:43.023Z,100.00
2019-03-17T18:13:16.968Z,100.00
2019-03-17T18:15:50.416Z,100.00
2019-03-17T18:18:22.735Z,100.00
2019-03-17T18:20:59.204Z,100.00
2019-03-17T18:23:31.814Z,100.00
2019-03-17T18:26:05.682Z,100.00
2019-03-17T18:28:39.082Z,99.25
2019-03-17T18:31:12.630Z,98.59
2019-03-17T18:33:46.580Z,97.74
2019-03-17T18:36:20.006Z,97.76
2019-03-17T18:38:53.240Z,96.98
2019-03-17T18:41:26.326Z,95.39
2019-03-17T18:43:59.443Z,95.29
2019-03-17T18:46:32.693Z,96.00
2019-03-17T18:49:06.124Z,95.91
2019-03-17T18:51:39.840Z,94.90
2019-03-17T18:54:13.096Z,94.77
2019-03-17T18:56:46.278Z,94.63
2019-03-17T18:59:20.147Z,95.26
2019-03-17T19:01:52.971Z,96.89
2019-03-17T19:04:26.817Z,96.03
2019-03-17T19:07:00.210Z,96.01
2019-03-17T19:09:33.420Z,95.65
2019-03-17T19:12:06.833Z,96.92
2019-03-17T19:14:40.525Z,94.62
2019-03-17T19:17:14.311Z,95.38
2019-03-17T19:19:47.819Z,96.27
2019-03-17T19:22:21.806Z,95.58
2019-03-17T19:24:54.936Z,95.90
2019-03-17T19:27:28.371Z,95.56
2019-03-17T19:30:01.272Z,94.39
2019-03-17T19:32:34.015Z,94.72
2019-03-17T19:35:07.666Z,95.78
2019-03-17T19:37:40.682Z,94.80
2019-03-17T19:40:14.338Z,96.28
2019-03-17T19:42:58.055Z,96.79
2019-03-17T19:45:22.722Z,96.46
2019-03-17T19:47:55.568Z,96.74
2019-03-17T19:50:29.204Z,97.01
2019-03-17T19:53:02.823Z,98.16
2019-03-17T19:55:35.982Z,97.24
2019-03-17T19:58:09.931Z,96.99
2019-03-17T20:00:43.924Z,94.86
2019-03-17T20:03:17.467Z,95.88
2019-03-17T20:06:01.877Z,96.14
2019-03-17T20:08:25.823Z,95.67
2019-03-17T20:10:58.906Z,96.53
2019-03-17T20:13:32.598Z,98.12
2019-03-17T20:16:05.777Z,98.98
2019-03-17T20:18:41.355Z,100.00
2019-03-17T20:21:14.488Z,99.08
2019-03-17T20:23:48.155Z,100.00
2019-03-17T20:26:22.192Z,98.30
2019-03-17T20:28:55.967Z,98.96
2019-03-17T20:31:29.193Z,99.22
2019-03-17T20:34:02.991Z,98.16
2019-03-17T20:36:36.085Z,98.26
2019-03-17T20:39:09.137Z,98.98
2019-03-17T20:41:42.744Z,99.21
2019-03-17T20:44:16.336Z,99.08
2019-03-17T20:46:50.307Z,99.78
2019-03-17T20:49:23.873Z,100.00
2019-03-17T20:51:57.717Z,99.24
2019-03-17T20:54:30.850Z,98.50
2019-03-17T20:57:04.346Z,100.00
2019-03-17T20:59:37.445Z,100.00
2019-03-17T21:02:10.773Z,100.00
2019-03-17T21:04:44.353Z,100.00
2019-03-17T21:07:16.781Z,100.00
2019-03-17T21:09:50.036Z,100.00
2019-03-17T21:12:23.810Z,100.00
2019-03-17T21:14:57.673Z,100.00
2019-03-17T21:17:31.177Z,100.00
2019-03-17T21:20:04.930Z,100.00
2019-03-17T21:22:38.416Z,100.00
2019-03-17T21:25:10.796Z,100.00
2019-03-17T21:27:44.305Z,100.00
2019-03-17T21:30:18.613Z,100.00
2019-03-17T21:32:52.557Z,99.47
2019-03-17T21:35:26.098Z,100.00
2019-03-17T21:37:59.437Z,100.00
2019-03-17T21:40:32.598Z,99.13
2019-03-17T21:43:05.736Z,100.00
2019-03-17T21:45:38.881Z,100.00
2019-03-17T21:48:12.413Z,100.00
2019-03-17T21:50:45.297Z,100.00
2019-03-17T21:53:18.497Z,100.00
2019-03-17T21:55:54.059Z,100.00
2019-03-17T21:58:27.770Z,100.00
2019-03-17T22:01:01.730Z,100.00
2019-03-17T22:03:35.522Z,100.00
2019-03-17T22:06:08.217Z,100.00
2019-03-17T22:08:40.923Z,100.00
2019-03-17T22:11:14.805Z,100.00
2019-03-17T22:13:48.425Z,100.00
2019-03-17T22:16:21.197Z,100.00
2019-03-17T22:18:53.963Z,100.00
2019-03-17T22:21:27.281Z,100.00
2019-03-17T22:24:01.322Z,100.00
2019-03-17T22:26:34.511Z,100.00
2019-03-17T22:29:07.548Z,100.00
2019-03-17T22:31:41.497Z,100.00
2019-03-17T22:34:14.944Z,100.00
2019-03-17T22:36:49.003Z,100.00
2019-03-17T22:39:22.564Z,100.00
2019-03-17T22:41:56.053Z,100.00
2019-03-17T22:44:29.878Z,100.00
2019-03-17T22:47:03.061Z,100.00
2019-03-17T22:49:36.616Z,100.00
2019-03-17T22:52:09.674Z,100.00
2019-03-17T22:54:43.472Z,100.00
2019-03-17T22:57:16.553Z,100.00
2019-03-17T22:59:50.302Z,100.00
2019-03-17T23:02:23.130Z,100.00
2019-03-17T23:04:56.141Z,100.00
2019-03-17T23:07:29.113Z,100.00
2019-03-17T23:10:03.289Z,100.00
2019-03-17T23:12:36.396Z,100.00
2019-03-17T23:15:10.021Z,100.00
2019-03-17T23:17:42.668Z,100.00
2019-03-17T23:20:16.102Z,100.00
2019-03-17T23:22:49.972Z,100.00
2019-03-17T23:25:23.596Z,100.00
2019-03-17T23:27:57.431Z,100.00
2019-03-17T23:30:31.214Z,100.00
2019-03-17T23:33:04.385Z,100.00
2019-03-17T23:35:37.713Z,100.00
2019-03-17T23:38:10.692Z,100.00
2019-03-17T23:40:44.200Z,100.00
2019-03-17T23:43:18.653Z,100.00
2019-03-17T23:45:52.115Z,100.00
2019-03-17T23:48:24.761Z,100.00
2019-03-17T23:50:58.090Z,100.00
2019-03-17T23:53:31.621Z,100.00
2019-03-17T23:56:05.181Z,100.00
2019-03-17T23:58:39.036Z,100.00
